createdAt,value
2022-09-09T00:00:45.294Z,6.33
2022-09-09T00:03:25.859Z,6.03
2022-09-09T00:06:12.437Z,8.77
2022-09-09T00:08:46.054Z,6.37
2022-09-09T00:11:13.554Z,6.43
2022-09-09T00:13:47.044Z,8.23
2022-09-09T00:16:18.165Z,7.67
2022-09-09T00:19:08.144Z,8.30
2022-09-09T00:21:38.477Z,7.27
2022-09-09T00:24:34.840Z,7.50
2022-09-09T00:27:05.379Z,7.97
2022-09-09T00:29:38.707Z,6.37
2022-09-09T00:32:18.547Z,6.17
2022-09-09T00:34:53.581Z,6.93
2022-09-09T00:37:21.157Z,6.57
2022-09-09T00:39:48.809Z,6.10
2022-09-09T00:42:16.659Z,7.50
2022-09-09T00:44:53.295Z,6.70
2022-09-09T00:47:33.310Z,7.43
2022-09-09T00:50:10.511Z,6.63
2022-09-09T00:52:46.479Z,6.27
2022-09-09T00:55:51.234Z,6.10
2022-09-09T00:58:17.487Z,6.93
2022-09-09T01:00:56.751Z,7.80
2022-09-09T01:03:28.900Z,7.50
2022-09-09T01:06:05.850Z,6.73
2022-09-09T01:08:51.289Z,9.90
2022-09-09T01:11:26.781Z,7.10
2022-09-09T01:14:11.832Z,7.97
2022-09-09T01:16:38.457Z,6.97
2022-09-09T01:19:07.420Z,7.53
2022-09-09T01:21:39.632Z,9.90
2022-09-09T01:24:24.842Z,6.60
2022-09-09T01:26:53.537Z,7.77
2022-09-09T01:29:21.648Z,7.73
2022-09-09T01:32:22.994Z,6.30
2022-09-09T01:34:49.356Z,6.77
2022-09-09T01:37:15.753Z,7.10
2022-09-09T01:39:44.302Z,6.67
2022-09-09T01:42:12.263Z,7.07
2022-09-09T01:44:39.068Z,7.83
2022-09-09T01:47:05.426Z,7.43
2022-09-09T01:49:33.583Z,7.60
2022-09-09T01:52:00.124Z,6.93
2022-09-09T01:54:28.684Z,6.93
2022-09-09T01:56:54.899Z,7.23
2022-09-09T01:59:29.812Z,7.10
2022-09-09T02:01:56.056Z,6.67
2022-09-09T02:04:31.212Z,6.50
2022-09-09T02:07:00.415Z,7.43
2022-09-09T02:09:27.145Z,8.03
2022-09-09T02:12:00.003Z,6.40
2022-09-09T02:14:28.206Z,6.80
2022-09-09T02:17:23.679Z,8.97
2022-09-09T02:19:56.072Z,8.30
2022-09-09T02:22:24.117Z,6.43
2022-09-09T02:24:51.138Z,6.93
2022-09-09T02:27:19.499Z,6.87
2022-09-09T02:29:48.123Z,6.83
2022-09-09T02:32:22.747Z,7.97
2022-09-09T02:34:58.516Z,7.47
2022-09-09T02:37:29.346Z,7.63
2022-09-09T02:39:56.017Z,9.23
2022-09-09T02:42:22.304Z,10.20
2022-09-09T02:44:48.684Z,9.90
2022-09-09T02:47:25.437Z,8.13
2022-09-09T02:49:57.778Z,10.93
2022-09-09T02:52:29.919Z,7.20
2022-09-09T02:55:00.883Z,7.00
2022-09-09T02:57:28.945Z,8.63
2022-09-09T02:59:57.870Z,7.07
2022-09-09T03:02:25.467Z,8.87
2022-09-09T03:04:52.826Z,6.43
2022-09-09T03:07:19.696Z,8.43
2022-09-09T03:09:46.561Z,6.10
2022-09-09T03:12:12.927Z,7.77
2022-09-09T03:14:39.287Z,9.80
2022-09-09T03:17:06.312Z,6.70
2022-09-09T03:19:32.806Z,8.90
2022-09-09T03:21:59.270Z,6.93
2022-09-09T03:24:26.067Z,10.73
2022-09-09T03:26:52.315Z,6.63
2022-09-09T03:29:19.453Z,6.50
2022-09-09T03:31:45.780Z,6.63
2022-09-09T03:34:12.197Z,7.63
2022-09-09T03:36:38.503Z,7.27
2022-09-09T03:39:04.720Z,5.90
2022-09-09T03:41:31.275Z,7.17
2022-09-09T03:43:57.503Z,6.37
2022-09-09T03:46:24.538Z,6.43
2022-09-09T03:48:51.802Z,6.40
2022-09-09T03:51:18.818Z,7.33
2022-09-09T03:53:45.093Z,8.00
2022-09-09T03:56:11.328Z,8.30
2022-09-09T03:58:38.085Z,7.80
2022-09-09T04:01:05.541Z,8.47
2022-09-09T04:03:31.953Z,6.70
2022-09-09T04:05:59.454Z,8.13
2022-09-09T04:08:28.506Z,5.53
2022-09-09T04:10:58.905Z,10.70
2022-09-09T04:13:25.944Z,6.30
2022-09-09T04:15:53.423Z,6.40
2022-09-09T04:18:20.361Z,6.40
2022-09-09T04:20:47.544Z,6.57
2022-09-09T04:23:14.669Z,6.53
2022-09-09T04:25:50.698Z,6.10
2022-09-09T04:28:17.554Z,5.63
2022-09-09T04:30:44.835Z,9.07
2022-09-09T04:33:11.597Z,7.57
2022-09-09T04:35:38.799Z,6.77
2022-09-09T04:38:05.682Z,8.00
2022-09-09T04:40:32.418Z,7.13
2022-09-09T04:42:59.421Z,5.83
2022-09-09T04:45:27.030Z,6.07
2022-09-09T04:47:53.580Z,8.13
2022-09-09T04:50:19.854Z,6.73
2022-09-09T04:52:46.084Z,8.90
2022-09-09T04:55:13.764Z,5.37
2022-09-09T04:57:40.620Z,6.07
2022-09-09T05:00:07.559Z,7.90
2022-09-09T05:02:34.297Z,6.77
2022-09-09T05:05:01.070Z,5.70
2022-09-09T05:07:28.128Z,6.17
2022-09-09T05:09:54.664Z,5.87
2022-09-09T05:12:20.899Z,7.23
2022-09-09T05:14:47.119Z,8.63
2022-09-09T05:17:14.200Z,8.17
2022-09-09T05:19:40.419Z,9.33
2022-09-09T05:22:06.615Z,5.53
2022-09-09T05:24:34.183Z,6.50
2022-09-09T05:27:02.647Z,7.60
2022-09-09T05:29:29.361Z,6.87
2022-09-09T05:31:55.615Z,7.20
2022-09-09T05:34:21.888Z,5.83
2022-09-09T05:36:48.772Z,6.47
2022-09-09T05:39:14.986Z,10.13
2022-09-09T05:41:41.317Z,6.67
2022-09-09T05:44:07.651Z,6.97
2022-09-09T05:46:34.093Z,6.47
2022-09-09T05:49:01.232Z,9.77
2022-09-09T05:51:29.050Z,5.33
2022-09-09T05:54:01.460Z,6.13
2022-09-09T05:56:28.619Z,7.33
2022-09-09T05:58:55.396Z,6.37
2022-09-09T06:01:24.350Z,4.47
2022-09-09T06:03:51.477Z,9.13
2022-09-09T06:06:21.559Z,6.83
2022-09-09T06:08:48.146Z,10.47
2022-09-09T06:11:24.394Z,5.13
2022-09-09T06:13:54.479Z,3.90
2022-09-09T06:16:24.005Z,6.77
2022-09-09T06:18:51.743Z,4.63
2022-09-09T06:21:22.066Z,6.80
2022-09-09T06:23:48.744Z,7.73
2022-09-09T06:26:22.148Z,6.43
2022-09-09T06:28:49.212Z,4.10
2022-09-09T06:31:18.371Z,7.43
2022-09-09T06:33:45.446Z,4.27
2022-09-09T06:36:16.108Z,6.60
2022-09-09T06:38:43.307Z,5.97
2022-09-09T06:41:10.297Z,4.30
2022-09-09T06:43:36.550Z,8.83
2022-09-09T06:46:05.320Z,8.07
2022-09-09T06:48:31.910Z,7.20
2022-09-09T06:51:05.238Z,4.27
2022-09-09T06:53:32.100Z,6.60
2022-09-09T06:55:58.330Z,18.77
2022-09-09T06:58:24.587Z,8.73
2022-09-09T07:00:50.930Z,5.53
2022-09-09T07:03:17.237Z,4.20
2022-09-09T07:05:45.210Z,6.70
2022-09-09T07:08:11.560Z,6.33
2022-09-09T07:10:38.136Z,6.40
2022-09-09T07:13:05.944Z,6.22
2022-09-09T07:15:34.862Z,4.63
2022-09-09T07:18:04.003Z,3.65
2022-09-09T07:20:30.214Z,4.65
2022-09-09T07:22:57.223Z,5.78
2022-09-09T07:25:23.493Z,4.88
2022-09-09T07:27:50.268Z,5.30
2022-09-09T07:30:22.964Z,4.03
2022-09-09T07:32:52.867Z,3.10
2022-09-09T07:35:19.244Z,5.85
2022-09-09T07:37:50.294Z,4.88
2022-09-09T07:40:17.303Z,5.55
2022-09-09T07:42:43.574Z,3.60
2022-09-09T07:45:09.788Z,3.13
2022-09-09T07:47:36.622Z,1.85
2022-09-09T07:50:02.889Z,4.22
2022-09-09T07:52:29.212Z,3.90
2022-09-09T07:54:56.607Z,3.00
2022-09-09T07:57:22.986Z,4.90
2022-09-09T07:59:49.227Z,2.40
2022-09-09T08:02:15.554Z,2.97
2022-09-09T08:04:41.849Z,3.25
2022-09-09T08:07:08.104Z,4.43
2022-09-09T08:09:34.652Z,3.73
2022-09-09T08:12:01.969Z,4.23
2022-09-09T08:14:29.544Z,3.28
2022-09-09T08:16:56.090Z,3.63
2022-09-09T08:19:22.834Z,5.20
2022-09-09T08:21:50.051Z,2.97
2022-09-09T08:24:16.516Z,4.40
2022-09-09T08:26:44.030Z,4.93
2022-09-09T08:29:11.204Z,5.60
2022-09-09T08:31:38.973Z,3.10
2022-09-09T08:34:05.720Z,4.60
2022-09-09T08:36:36.852Z,4.30
2022-09-09T08:39:03.761Z,4.00
2022-09-09T08:41:35.096Z,5.80
2022-09-09T08:44:21.617Z,4.13
2022-09-09T08:46:53.153Z,5.53
2022-09-09T08:49:39.848Z,3.33
2022-09-09T08:52:11.454Z,4.57
2022-09-09T08:54:51.762Z,6.70
2022-09-09T08:57:31.047Z,6.07
2022-09-09T08:59:58.575Z,3.03
2022-09-09T09:02:30.687Z,5.33
2022-09-09T09:05:06.444Z,7.10
2022-09-09T09:07:51.425Z,4.97
2022-09-09T09:10:42.171Z,5.57
2022-09-09T09:13:35.291Z,2.47
2022-09-09T09:16:05.571Z,3.77
2022-09-09T09:18:32.418Z,3.33
2022-09-09T09:21:04.908Z,4.37
2022-09-09T09:23:39.372Z,2.57
2022-09-09T09:26:08.399Z,3.17
2022-09-09T09:28:34.951Z,3.00
2022-09-09T09:31:05.202Z,3.13
2022-09-09T09:34:00.222Z,4.93
2022-09-09T09:36:34.701Z,8.70
2022-09-09T09:41:48.203Z,2.83
2022-09-09T09:44:25.653Z,3.93
2022-09-09T09:46:52.062Z,3.53
2022-09-09T09:49:18.432Z,3.20
2022-09-09T09:51:44.899Z,3.77
2022-09-09T09:54:14.223Z,4.03
2022-09-09T09:56:41.262Z,4.33
2022-09-09T09:59:23.809Z,3.43
2022-09-09T10:02:07.508Z,3.10
2022-09-09T10:04:34.500Z,3.53
2022-09-09T10:07:10.739Z,4.33
2022-09-09T10:09:37.000Z,3.20
2022-09-09T10:12:09.952Z,6.37
2022-09-09T10:14:46.876Z,3.73
2022-09-09T10:17:18.988Z,2.93
2022-09-09T10:20:05.612Z,4.70
2022-09-09T10:22:34.134Z,4.87
2022-09-09T10:25:07.238Z,3.23
2022-09-09T10:27:46.200Z,3.00
2022-09-09T10:30:12.456Z,2.43
2022-09-09T10:32:44.269Z,3.80
2022-09-09T10:35:12.939Z,2.30
2022-09-09T10:37:58.584Z,12.13
2022-09-09T10:40:27.930Z,4.63
2022-09-09T10:42:59.304Z,6.30
2022-09-09T10:45:35.662Z,2.27
2022-09-09T10:48:10.906Z,5.93
2022-09-09T10:51:00.604Z,2.70
2022-09-09T10:53:32.742Z,3.00
2022-09-09T10:56:01.215Z,4.97
2022-09-09T10:58:37.028Z,4.10
2022-09-09T11:01:10.212Z,4.50
2022-09-09T11:03:39.407Z,3.10
2022-09-09T11:06:06.990Z,6.27
2022-09-09T11:08:35.418Z,2.60
2022-09-09T11:11:04.574Z,3.50
2022-09-09T11:13:32.549Z,2.73
2022-09-09T11:16:20.366Z,4.13
2022-09-09T11:18:47.431Z,3.43
2022-09-09T11:21:24.563Z,5.07
2022-09-09T11:23:53.963Z,2.37
2022-09-09T11:26:26.016Z,3.00
2022-09-09T11:28:52.223Z,3.20
2022-09-09T11:31:25.764Z,2.63
2022-09-09T11:33:52.431Z,4.00
2022-09-09T11:36:32.751Z,2.93
2022-09-09T11:39:08.178Z,0.97
2022-09-09T11:41:35.466Z,2.63
2022-09-09T11:44:11.210Z,3.27
2022-09-09T11:46:39.065Z,3.40
2022-09-09T11:49:06.601Z,2.30
2022-09-09T11:51:33.524Z,4.47
2022-09-09T11:54:02.317Z,3.70
2022-09-09T11:56:31.732Z,2.77
2022-09-09T11:58:59.459Z,2.60
2022-09-09T12:01:28.898Z,3.00
2022-09-09T12:04:10.352Z,2.97
2022-09-09T12:06:44.446Z,4.03
2022-09-09T12:09:19.317Z,6.63
2022-09-09T12:11:45.549Z,3.67
2022-09-09T12:14:22.214Z,2.73
2022-09-09T12:16:48.500Z,1.60
2022-09-09T12:19:16.685Z,2.57
2022-09-09T12:21:49.235Z,3.80
2022-09-09T12:24:21.271Z,3.23
2022-09-09T12:27:03.930Z,2.13
2022-09-09T12:30:05.539Z,3.53
2022-09-09T12:32:33.256Z,1.93
2022-09-09T12:35:25.682Z,5.07
2022-09-09T12:37:54.938Z,2.93
2022-09-09T12:40:22.901Z,2.97
2022-09-09T12:42:49.712Z,1.67
2022-09-09T12:45:20.267Z,2.87
2022-09-09T12:47:52.288Z,5.03
2022-09-09T12:50:20.829Z,1.90
2022-09-09T12:52:48.119Z,5.80
2022-09-09T12:55:19.574Z,3.13
2022-09-09T12:57:46.700Z,3.93
2022-09-09T13:00:16.810Z,2.93
2022-09-09T13:03:02.747Z,2.93
2022-09-09T13:05:29.108Z,3.77
2022-09-09T13:08:03.287Z,2.40
2022-09-09T13:10:36.995Z,2.93
2022-09-09T13:13:22.455Z,4.27
2022-09-09T13:15:53.643Z,2.97
2022-09-09T13:18:23.106Z,4.40
2022-09-09T13:20:49.960Z,3.27
2022-09-09T13:23:18.005Z,2.93
2022-09-09T13:25:54.291Z,2.73
2022-09-09T13:28:25.554Z,2.13
2022-09-09T13:31:03.545Z,4.60
2022-09-09T13:33:35.962Z,3.97
2022-09-09T13:36:04.932Z,2.83
2022-09-09T13:38:33.092Z,2.30
2022-09-09T13:41:05.132Z,3.73
2022-09-09T13:43:51.665Z,4.27
2022-09-09T13:46:26.446Z,3.63
2022-09-09T13:48:56.721Z,2.43
2022-09-09T13:51:29.247Z,10.10
2022-09-09T13:53:55.526Z,4.17
2022-09-09T13:56:21.983Z,4.60
2022-09-09T13:58:48.199Z,2.90
2022-09-09T14:01:14.467Z,2.90
2022-09-09T14:03:41.016Z,5.43
2022-09-09T14:06:08.164Z,3.23
2022-09-09T14:08:38.219Z,9.17
2022-09-09T14:11:05.409Z,3.57
2022-09-09T14:13:32.161Z,3.60
2022-09-09T14:15:58.594Z,1.73
2022-09-09T14:18:26.315Z,2.97
2022-09-09T14:20:52.606Z,2.83
2022-09-09T14:23:19.932Z,3.47
2022-09-09T14:25:46.364Z,3.00
2022-09-09T14:28:13.520Z,2.87
2022-09-09T14:30:40.876Z,3.63
2022-09-09T14:33:07.772Z,3.43
2022-09-09T14:35:34.340Z,2.63
2022-09-09T14:38:01.967Z,2.80
2022-09-09T14:40:28.202Z,2.10
2022-09-09T14:42:54.452Z,4.90
2022-09-09T14:45:22.254Z,5.10
2022-09-09T14:47:50.106Z,4.10
2022-09-09T14:50:16.360Z,2.23
2022-09-09T14:52:42.786Z,3.00
2022-09-09T14:55:09.420Z,3.57
2022-09-09T14:57:36.689Z,1.10
2022-09-09T15:00:06.789Z,2.57
2022-09-09T15:02:33.763Z,1.77
2022-09-09T15:05:00.008Z,3.27
2022-09-09T15:07:26.547Z,4.83
2022-09-09T15:09:54.057Z,5.57
2022-09-09T15:12:20.288Z,2.97
2022-09-09T15:14:46.547Z,1.77
2022-09-09T15:17:13.225Z,3.20
2022-09-09T15:19:39.511Z,2.03
2022-09-09T15:22:09.278Z,1.90
2022-09-09T15:24:35.907Z,3.10
2022-09-09T15:27:02.352Z,2.00
2022-09-09T15:29:28.840Z,3.20
2022-09-09T15:31:56.188Z,2.27
2022-09-09T15:34:22.797Z,6.83
2022-09-09T15:36:49.024Z,4.47
2022-09-09T15:39:19.373Z,2.23
2022-09-09T15:41:46.383Z,3.30
2022-09-09T15:44:13.240Z,3.13
2022-09-09T15:46:41.280Z,1.73
2022-09-09T15:49:10.157Z,2.03
2022-09-09T15:51:42.595Z,3.57
2022-09-09T15:54:10.666Z,2.60
2022-09-09T15:56:36.891Z,3.60
2022-09-09T15:59:06.420Z,3.03
2022-09-09T16:01:33.426Z,2.10
2022-09-09T16:04:00.899Z,4.13
2022-09-09T16:06:28.207Z,3.67
2022-09-09T16:08:55.237Z,4.40
2022-09-09T16:11:25.852Z,1.83
2022-09-09T16:13:52.745Z,5.77
2022-09-09T16:16:20.630Z,4.07
2022-09-09T16:18:48.629Z,3.23
2022-09-09T16:21:22.620Z,3.37
2022-09-09T16:23:50.416Z,3.40
2022-09-09T16:26:17.795Z,3.87
2022-09-09T16:28:44.509Z,3.13
2022-09-09T16:31:12.429Z,3.60
2022-09-09T16:33:38.979Z,2.53
2022-09-09T16:36:09.372Z,3.37
2022-09-09T16:38:37.351Z,3.17
2022-09-09T16:41:05.979Z,3.13
2022-09-09T16:43:33.340Z,4.13
2022-09-09T16:46:01.297Z,3.37
2022-09-09T16:48:31.357Z,4.23
2022-09-09T16:51:05.783Z,5.37
2022-09-09T16:53:32.989Z,3.83
2022-09-09T16:55:59.304Z,4.07
2022-09-09T16:58:25.517Z,2.50
2022-09-09T17:00:52.211Z,2.93
2022-09-09T17:03:18.497Z,3.93
2022-09-09T17:05:45.703Z,3.27
2022-09-09T17:08:11.928Z,5.67
2022-09-09T17:10:42.032Z,4.33
2022-09-09T17:13:08.360Z,8.27
2022-09-09T17:15:35.282Z,8.13
2022-09-09T17:18:01.564Z,5.60
2022-09-09T17:20:27.796Z,4.93
2022-09-09T17:22:54.005Z,4.70
2022-09-09T17:25:20.235Z,6.73
2022-09-09T17:27:46.450Z,3.27
2022-09-09T17:30:13.015Z,2.13
2022-09-09T17:32:39.320Z,4.07
2022-09-09T17:35:06.807Z,5.27
2022-09-09T17:37:33.102Z,4.30
2022-09-09T17:40:00.279Z,3.83
2022-09-09T17:42:26.675Z,3.80
2022-09-09T17:44:52.908Z,3.17
2022-09-09T17:47:19.124Z,4.77
2022-09-09T17:49:45.385Z,2.43
2022-09-09T17:52:11.630Z,3.20
2022-09-09T17:54:38.007Z,4.00
2022-09-09T17:57:04.340Z,2.70
2022-09-09T17:59:31.267Z,4.73
2022-09-09T18:01:57.936Z,3.63
2022-09-09T18:04:24.560Z,3.50
2022-09-09T18:06:52.157Z,4.83
2022-09-09T18:09:19.846Z,3.90
2022-09-09T18:11:47.526Z,4.80
2022-09-09T18:14:16.267Z,3.60
2022-09-09T18:16:42.581Z,5.20
2022-09-09T18:19:12.403Z,2.83
2022-09-09T18:21:38.614Z,4.37
2022-09-09T18:24:05.864Z,2.50
2022-09-09T18:26:33.672Z,2.67
2022-09-09T18:29:01.397Z,2.73
2022-09-09T18:31:28.968Z,3.93
2022-09-09T18:33:57.076Z,2.73
2022-09-09T18:36:24.815Z,2.70
2022-09-09T18:38:51.072Z,2.63
2022-09-09T18:41:18.573Z,3.63
2022-09-09T18:43:45.267Z,2.27
2022-09-09T18:46:11.818Z,2.23
2022-09-09T18:48:38.921Z,4.50
2022-09-09T18:51:08.360Z,5.00
2022-09-09T18:53:38.072Z,1.90
2022-09-09T18:56:06.291Z,2.13
2022-09-09T18:58:33.121Z,4.50
2022-09-09T19:01:00.018Z,2.80
2022-09-09T19:03:31.519Z,3.63
2022-09-09T19:06:01.590Z,3.40
2022-09-09T19:08:28.907Z,3.23
2022-09-09T19:10:55.274Z,2.10
2022-09-09T19:13:22.645Z,2.37
2022-09-09T19:15:48.918Z,4.10
2022-09-09T19:18:15.163Z,2.90
2022-09-09T19:20:41.372Z,3.27
2022-09-09T19:23:07.599Z,1.90
2022-09-09T19:25:37.532Z,4.10
2022-09-09T19:28:04.187Z,1.53
2022-09-09T19:30:30.455Z,2.87
2022-09-09T19:32:56.714Z,5.63
2022-09-09T19:35:24.846Z,1.93
2022-09-09T19:37:51.051Z,2.00
2022-09-09T19:40:17.574Z,1.63
2022-09-09T19:42:43.964Z,3.70
2022-09-09T19:45:10.578Z,2.73
2022-09-09T19:47:36.806Z,3.60
2022-09-09T19:50:05.662Z,2.73
2022-09-09T19:52:31.925Z,2.93
2022-09-09T19:54:58.385Z,3.47
2022-09-09T19:57:24.776Z,2.30
2022-09-09T19:59:51.028Z,2.77
2022-09-09T20:02:17.330Z,2.03
2022-09-09T20:04:44.451Z,4.77
2022-09-09T20:07:10.773Z,3.37
2022-09-09T20:09:36.994Z,1.63
2022-09-09T20:12:03.300Z,2.00
2022-09-09T20:14:29.579Z,1.70
2022-09-09T20:16:56.339Z,3.33
2022-09-09T20:19:22.633Z,3.33
2022-09-09T20:21:49.450Z,2.57
2022-09-09T20:24:17.402Z,4.40
2022-09-09T20:26:44.520Z,2.70
2022-09-09T20:29:16.017Z,3.67
2022-09-09T20:31:43.512Z,2.20
2022-09-09T20:34:10.922Z,3.03
2022-09-09T20:36:37.751Z,1.87
2022-09-09T20:39:07.301Z,2.47
2022-09-09T20:41:34.254Z,2.70
2022-09-09T20:44:01.982Z,2.63
2022-09-09T20:46:30.516Z,3.40
2022-09-09T20:49:02.669Z,3.53
2022-09-09T20:51:31.104Z,2.53
2022-09-09T20:53:58.367Z,4.53
2022-09-09T20:56:25.550Z,2.63
2022-09-09T20:58:51.872Z,2.77
2022-09-09T21:01:18.732Z,4.30
2022-09-09T21:03:45.412Z,3.97
2022-09-09T21:06:11.696Z,4.10
2022-09-09T21:08:38.436Z,2.97
2022-09-09T21:11:05.061Z,2.43
2022-09-09T21:13:32.081Z,5.13
2022-09-09T21:15:58.679Z,3.00
2022-09-09T21:18:25.054Z,2.37
2022-09-09T21:20:53.031Z,2.40
2022-09-09T21:23:19.428Z,4.53
2022-09-09T21:25:47.324Z,1.93
2022-09-09T21:28:13.830Z,4.17
2022-09-09T21:30:44.188Z,3.33
2022-09-09T21:33:11.088Z,3.10
2022-09-09T21:35:40.397Z,4.60
2022-09-09T21:38:07.464Z,4.70
2022-09-09T21:40:36.852Z,3.73
2022-09-09T21:43:04.269Z,3.60
2022-09-09T21:45:30.627Z,3.50
2022-09-09T21:47:56.856Z,1.83
2022-09-09T21:50:27.937Z,2.47
2022-09-09T21:52:54.972Z,3.80
2022-09-09T21:55:21.523Z,4.10
2022-09-09T21:57:47.728Z,4.70
2022-09-09T22:00:18.347Z,3.07
2022-09-09T22:02:45.127Z,3.93
2022-09-09T22:05:11.705Z,5.00
2022-09-09T22:07:38.062Z,3.03
2022-09-09T22:10:04.586Z,7.07
2022-09-09T22:12:30.967Z,2.60
2022-09-09T22:14:57.187Z,3.93
2022-09-09T22:17:24.530Z,4.57
2022-09-09T22:19:51.625Z,2.70
2022-09-09T22:22:20.670Z,2.33
2022-09-09T22:24:46.966Z,2.90
2022-09-09T22:27:13.699Z,4.10
2022-09-09T22:29:40.132Z,1.87
2022-09-09T22:32:07.754Z,3.13
2022-09-09T22:34:35.174Z,1.97
2022-09-09T22:37:02.152Z,1.73
2022-09-09T22:39:28.790Z,3.90
2022-09-09T22:41:56.003Z,2.17
2022-09-09T22:44:23.998Z,2.93
2022-09-09T22:46:50.808Z,4.33
2022-09-09T22:49:17.062Z,4.90
2022-09-09T22:51:43.955Z,2.97
2022-09-09T22:54:10.227Z,3.17
2022-09-09T22:56:38.537Z,4.10
2022-09-09T22:59:04.967Z,2.77
2022-09-09T23:01:31.848Z,4.90
2022-09-09T23:03:59.312Z,4.30
2022-09-09T23:06:26.776Z,3.13
2022-09-09T23:08:57.221Z,3.90
2022-09-09T23:11:25.836Z,2.53
2022-09-09T23:13:53.226Z,3.77
2022-09-09T23:16:20.770Z,1.80
2022-09-09T23:18:48.061Z,3.43
2022-09-09T23:21:18.186Z,4.03
2022-09-09T23:23:45.488Z,3.57
2022-09-09T23:26:13.487Z,4.43
2022-09-09T23:28:43.693Z,6.13
2022-09-09T23:31:10.993Z,2.60
2022-09-09T23:33:37.290Z,3.37
2022-09-09T23:36:07.756Z,2.77
2022-09-09T23:38:35.123Z,3.17
2022-09-09T23:41:02.312Z,4.30
2022-09-09T23:43:28.937Z,5.03
2022-09-09T23:45:56.920Z,2.87
2022-09-09T23:48:26.863Z,3.33
2022-09-09T23:50:53.058Z,4.27
2022-09-09T23:53:19.274Z,5.63
2022-09-09T23:55:45.534Z,4.07
2022-09-09T23:58:11.814Z,4.03
